sensor_id;sensor_type;location;lat;lon;timestamp;temperature;humidity
64961;SHT31;51487;52.266;10.542;2022-07-29T00:00:43;16.32;60.45
64961;SHT31;51487;52.266;10.542;2022-07-29T00:03:11;16.32;60.45
64961;SHT31;51487;52.266;10.542;2022-07-29T00:05:39;16.30;60.61
64961;SHT31;51487;52.266;10.542;2022-07-29T00:08:06;16.28;60.69
64961;SHT31;51487;52.266;10.542;2022-07-29T00:10:32;16.33;60.24
64961;SHT31;51487;52.266;10.542;2022-07-29T00:12:58;16.36;60.40
64961;SHT31;51487;52.266;10.542;2022-07-29T00:15:23;16.39;60.47
64961;SHT31;51487;52.266;10.542;2022-07-29T00:17:49;16.38;60.47
64961;SHT31;51487;52.266;10.542;2022-07-29T00:20:15;16.39;60.46
64961;SHT31;51487;52.266;10.542;2022-07-29T00:22:40;16.48;60.12
64961;SHT31;51487;52.266;10.542;2022-07-29T00:25:07;16.52;60.08
64961;SHT31;51487;52.266;10.542;2022-07-29T00:27:34;16.56;59.77
64961;SHT31;51487;52.266;10.542;2022-07-29T00:30:00;16.49;59.92
64961;SHT31;51487;52.266;10.542;2022-07-29T00:32:25;16.50;59.94
64961;SHT31;51487;52.266;10.542;2022-07-29T00:34:51;16.48;60.05
64961;SHT31;51487;52.266;10.542;2022-07-29T00:37:35;16.55;59.75
64961;SHT31;51487;52.266;10.542;2022-07-29T00:40:01;16.59;59.48
64961;SHT31;51487;52.266;10.542;2022-07-29T00:42:26;16.61;59.36
64961;SHT31;51487;52.266;10.542;2022-07-29T00:44:52;16.56;59.49
64961;SHT31;51487;52.266;10.542;2022-07-29T00:47:18;16.49;59.67
64961;SHT31;51487;52.266;10.542;2022-07-29T00:49:43;16.45;59.60
64961;SHT31;51487;52.266;10.542;2022-07-29T00:52:11;16.52;59.29
64961;SHT31;51487;52.266;10.542;2022-07-29T00:54:39;16.48;59.64
64961;SHT31;51487;52.266;10.542;2022-07-29T00:57:07;16.45;59.72
64961;SHT31;51487;52.266;10.542;2022-07-29T00:59:33;16.52;59.41
64961;SHT31;51487;52.266;10.542;2022-07-29T01:01:59;16.43;59.69
64961;SHT31;51487;52.266;10.542;2022-07-29T01:04:25;16.38;60.10
64961;SHT31;51487;52.266;10.542;2022-07-29T01:06:51;16.40;60.34
64961;SHT31;51487;52.266;10.542;2022-07-29T01:09:19;16.40;60.66
64961;SHT31;51487;52.266;10.542;2022-07-29T01:11:46;16.38;60.85
64961;SHT31;51487;52.266;10.542;2022-07-29T01:14:14;16.40;60.92
64961;SHT31;51487;52.266;10.542;2022-07-29T01:17:14;16.34;61.22
64961;SHT31;51487;52.266;10.542;2022-07-29T01:22:35;16.30;61.39
64961;SHT31;51487;52.266;10.542;2022-07-29T01:30:30;16.36;60.69
64961;SHT31;51487;52.266;10.542;2022-07-29T01:33:02;16.43;60.43
64961;SHT31;51487;52.266;10.542;2022-07-29T01:35:38;16.43;60.39
64961;SHT31;51487;52.266;10.542;2022-07-29T01:38:23;16.42;60.38
64961;SHT31;51487;52.266;10.542;2022-07-29T01:41:00;16.57;59.99
64961;SHT31;51487;52.266;10.542;2022-07-29T01:43:38;16.57;59.81
64961;SHT31;51487;52.266;10.542;2022-07-29T01:46:14;16.60;59.57
64961;SHT31;51487;52.266;10.542;2022-07-29T01:48:52;16.59;59.74
64961;SHT31;51487;52.266;10.542;2022-07-29T01:51:32;16.53;59.76
64961;SHT31;51487;52.266;10.542;2022-07-29T01:54:48;16.45;60.14
64961;SHT31;51487;52.266;10.542;2022-07-29T01:57:18;16.50;59.84
64961;SHT31;51487;52.266;10.542;2022-07-29T01:59:48;16.38;60.60
64961;SHT31;51487;52.266;10.542;2022-07-29T02:02:18;16.40;60.58
64961;SHT31;51487;52.266;10.542;2022-07-29T02:04:46;16.40;60.70
64961;SHT31;51487;52.266;10.542;2022-07-29T02:07:18;16.40;60.86
64961;SHT31;51487;52.266;10.542;2022-07-29T02:09:47;16.40;60.91
64961;SHT31;51487;52.266;10.542;2022-07-29T02:12:17;16.29;61.09
64961;SHT31;51487;52.266;10.542;2022-07-29T02:14:50;16.22;61.41
64961;SHT31;51487;52.266;10.542;2022-07-29T02:17:24;16.16;61.52
64961;SHT31;51487;52.266;10.542;2022-07-29T02:19:56;16.18;61.30
64961;SHT31;51487;52.266;10.542;2022-07-29T02:22:24;16.18;61.03
64961;SHT31;51487;52.266;10.542;2022-07-29T02:24:52;16.21;61.01
64961;SHT31;51487;52.266;10.542;2022-07-29T02:27:20;16.22;60.80
64961;SHT31;51487;52.266;10.542;2022-07-29T02:29:47;16.12;61.09
64961;SHT31;51487;52.266;10.542;2022-07-29T02:32:16;16.09;61.06
64961;SHT31;51487;52.266;10.542;2022-07-29T02:34:43;16.09;61.19
64961;SHT31;51487;52.266;10.542;2022-07-29T02:37:11;16.09;61.03
64961;SHT31;51487;52.266;10.542;2022-07-29T02:39:41;16.06;61.08
64961;SHT31;51487;52.266;10.542;2022-07-29T02:42:12;16.02;61.28
64961;SHT31;51487;52.266;10.542;2022-07-29T02:44:39;16.02;61.21
64961;SHT31;51487;52.266;10.542;2022-07-29T02:47:25;15.98;61.26
64961;SHT31;51487;52.266;10.542;2022-07-29T02:52:55;15.95;61.70
64961;SHT31;51487;52.266;10.542;2022-07-29T02:55:46;15.84;61.87
64961;SHT31;51487;52.266;10.542;2022-07-29T03:01:02;15.87;61.75
64961;SHT31;51487;52.266;10.542;2022-07-29T03:03:34;15.91;61.63
64961;SHT31;51487;52.266;10.542;2022-07-29T03:06:02;15.92;61.75
64961;SHT31;51487;52.266;10.542;2022-07-29T03:08:31;15.91;61.75
64961;SHT31;51487;52.266;10.542;2022-07-29T03:10:58;15.88;62.02
64961;SHT31;51487;52.266;10.542;2022-07-29T03:13:25;15.78;62.25
64961;SHT31;51487;52.266;10.542;2022-07-29T03:15:52;15.75;62.40
64961;SHT31;51487;52.266;10.542;2022-07-29T03:18:18;15.85;62.04
64961;SHT31;51487;52.266;10.542;2022-07-29T03:20:44;15.88;61.95
64961;SHT31;51487;52.266;10.542;2022-07-29T03:23:09;15.88;62.09
64961;SHT31;51487;52.266;10.542;2022-07-29T03:25:35;15.87;62.12
64961;SHT31;51487;52.266;10.542;2022-07-29T03:28:02;15.90;62.18
64961;SHT31;51487;52.266;10.542;2022-07-29T03:30:28;15.97;61.92
64961;SHT31;51487;52.266;10.542;2022-07-29T03:32:55;15.98;61.84
64961;SHT31;51487;52.266;10.542;2022-07-29T03:35:21;16.00;61.98
64961;SHT31;51487;52.266;10.542;2022-07-29T03:37:48;15.95;62.04
64961;SHT31;51487;52.266;10.542;2022-07-29T03:40:22;15.94;62.22
64961;SHT31;51487;52.266;10.542;2022-07-29T03:42:55;15.88;62.53
64961;SHT31;51487;52.266;10.542;2022-07-29T03:45:21;15.88;62.80
64961;SHT31;51487;52.266;10.542;2022-07-29T03:47:56;15.91;62.93
64961;SHT31;51487;52.266;10.542;2022-07-29T03:50:22;15.81;63.18
64961;SHT31;51487;52.266;10.542;2022-07-29T03:52:49;15.75;63.73
64961;SHT31;51487;52.266;10.542;2022-07-29T03:55:15;15.81;63.81
64961;SHT31;51487;52.266;10.542;2022-07-29T03:57:44;15.81;64.07
64961;SHT31;51487;52.266;10.542;2022-07-29T04:00:10;15.85;63.82
64961;SHT31;51487;52.266;10.542;2022-07-29T04:02:37;15.87;63.75
64961;SHT31;51487;52.266;10.542;2022-07-29T04:05:04;15.85;64.00
64961;SHT31;51487;52.266;10.542;2022-07-29T04:07:29;15.87;64.08
64961;SHT31;51487;52.266;10.542;2022-07-29T04:09:55;15.82;64.20
64961;SHT31;51487;52.266;10.542;2022-07-29T04:12:21;15.98;63.52
64961;SHT31;51487;52.266;10.542;2022-07-29T04:14:46;15.95;63.90
64961;SHT31;51487;52.266;10.542;2022-07-29T04:17:12;16.00;63.78
64961;SHT31;51487;52.266;10.542;2022-07-29T04:19:37;15.97;63.68
64961;SHT31;51487;52.266;10.542;2022-07-29T04:22:03;15.95;63.71
64961;SHT31;51487;52.266;10.542;2022-07-29T04:24:29;15.90;63.79
64961;SHT31;51487;52.266;10.542;2022-07-29T04:26:54;15.88;63.95
64961;SHT31;51487;52.266;10.542;2022-07-29T04:29:20;15.91;63.90
64961;SHT31;51487;52.266;10.542;2022-07-29T04:31:45;16.00;63.37
64961;SHT31;51487;52.266;10.542;2022-07-29T04:34:12;15.90;63.94
64961;SHT31;51487;52.266;10.542;2022-07-29T04:36:37;16.01;63.60
64961;SHT31;51487;52.266;10.542;2022-07-29T04:39:03;16.01;63.67
64961;SHT31;51487;52.266;10.542;2022-07-29T04:41:29;15.92;64.06
64961;SHT31;51487;52.266;10.542;2022-07-29T04:43:54;15.95;64.11
64961;SHT31;51487;52.266;10.542;2022-07-29T04:46:20;15.90;64.15
64961;SHT31;51487;52.266;10.542;2022-07-29T04:48:47;15.94;64.23
64961;SHT31;51487;52.266;10.542;2022-07-29T04:51:14;15.94;64.24
64961;SHT31;51487;52.266;10.542;2022-07-29T04:53:40;16.04;63.91
64961;SHT31;51487;52.266;10.542;2022-07-29T04:56:06;16.06;63.83
64961;SHT31;51487;52.266;10.542;2022-07-29T04:58:34;16.19;63.69
64961;SHT31;51487;52.266;10.542;2022-07-29T05:01:00;16.16;63.66
64961;SHT31;51487;52.266;10.542;2022-07-29T05:03:26;16.25;63.74
64961;SHT31;51487;52.266;10.542;2022-07-29T05:05:51;16.13;64.26
64961;SHT31;51487;52.266;10.542;2022-07-29T05:08:17;16.11;64.50
64961;SHT31;51487;52.266;10.542;2022-07-29T05:10:42;16.09;64.58
64961;SHT31;51487;52.266;10.542;2022-07-29T05:13:08;16.09;64.68
64961;SHT31;51487;52.266;10.542;2022-07-29T05:15:35;16.08;64.98
64961;SHT31;51487;52.266;10.542;2022-07-29T05:18:01;16.25;64.30
64961;SHT31;51487;52.266;10.542;2022-07-29T05:20:28;16.23;64.57
64961;SHT31;51487;52.266;10.542;2022-07-29T05:23:00;16.39;63.96
64961;SHT31;51487;52.266;10.542;2022-07-29T05:25:27;16.45;64.08
64961;SHT31;51487;52.266;10.542;2022-07-29T05:27:54;16.61;63.85
64961;SHT31;51487;52.266;10.542;2022-07-29T05:30:20;16.70;63.44
64961;SHT31;51487;52.266;10.542;2022-07-29T05:32:46;16.67;63.57
64961;SHT31;51487;52.266;10.542;2022-07-29T05:35:13;16.61;63.78
64961;SHT31;51487;52.266;10.542;2022-07-29T05:37:39;16.63;63.86
64961;SHT31;51487;52.266;10.542;2022-07-29T05:40:06;16.71;63.69
64961;SHT31;51487;52.266;10.542;2022-07-29T05:42:32;16.73;63.93
64961;SHT31;51487;52.266;10.542;2022-07-29T05:44:58;16.80;63.71
64961;SHT31;51487;52.266;10.542;2022-07-29T05:47:24;16.71;63.89
64961;SHT31;51487;52.266;10.542;2022-07-29T05:49:50;16.94;63.29
64961;SHT31;51487;52.266;10.542;2022-07-29T05:52:16;17.04;63.32
64961;SHT31;51487;52.266;10.542;2022-07-29T05:54:42;17.18;63.21
64961;SHT31;51487;52.266;10.542;2022-07-29T05:57:09;17.31;62.64
64961;SHT31;51487;52.266;10.542;2022-07-29T05:59:39;17.32;62.92
64961;SHT31;51487;52.266;10.542;2022-07-29T06:02:05;17.46;61.90
64961;SHT31;51487;52.266;10.542;2022-07-29T06:04:32;17.48;62.09
64961;SHT31;51487;52.266;10.542;2022-07-29T06:06:57;17.45;62.28
64961;SHT31;51487;52.266;10.542;2022-07-29T06:09:23;17.42;62.72
64961;SHT31;51487;52.266;10.542;2022-07-29T06:11:49;17.42;62.54
64961;SHT31;51487;52.266;10.542;2022-07-29T06:14:14;17.55;62.98
64961;SHT31;51487;52.266;10.542;2022-07-29T06:16:40;17.53;62.68
64961;SHT31;51487;52.266;10.542;2022-07-29T06:19:06;17.50;63.10
64961;SHT31;51487;52.266;10.542;2022-07-29T06:21:32;17.62;62.72
64961;SHT31;51487;52.266;10.542;2022-07-29T06:23:59;17.70;62.09
64961;SHT31;51487;52.266;10.542;2022-07-29T06:26:24;17.66;62.27
64961;SHT31;51487;52.266;10.542;2022-07-29T06:28:50;17.48;62.79
64961;SHT31;51487;52.266;10.542;2022-07-29T06:31:15;17.63;62.52
64961;SHT31;51487;52.266;10.542;2022-07-29T06:33:41;17.80;62.44
64961;SHT31;51487;52.266;10.542;2022-07-29T06:36:07;17.80;62.17
64961;SHT31;51487;52.266;10.542;2022-07-29T06:38:33;17.86;62.05
64961;SHT31;51487;52.266;10.542;2022-07-29T06:40:59;17.94;62.25
64961;SHT31;51487;52.266;10.542;2022-07-29T06:43:37;18.04;61.92
64961;SHT31;51487;52.266;10.542;2022-07-29T06:46:06;18.01;62.55
64961;SHT31;51487;52.266;10.542;2022-07-29T06:48:33;18.14;62.06
64961;SHT31;51487;52.266;10.542;2022-07-29T06:51:00;18.06;62.03
64961;SHT31;51487;52.266;10.542;2022-07-29T06:53:27;18.16;62.31
64961;SHT31;51487;52.266;10.542;2022-07-29T06:55:52;18.11;62.23
64961;SHT31;51487;52.266;10.542;2022-07-29T06:58:18;18.14;61.89
64961;SHT31;51487;52.266;10.542;2022-07-29T07:00:47;18.18;62.02
64961;SHT31;51487;52.266;10.542;2022-07-29T07:03:14;18.14;62.66
64961;SHT31;51487;52.266;10.542;2022-07-29T07:05:39;18.36;62.30
64961;SHT31;51487;52.266;10.542;2022-07-29T07:08:06;18.40;62.39
64961;SHT31;51487;52.266;10.542;2022-07-29T07:10:32;18.52;62.11
64961;SHT31;51487;52.266;10.542;2022-07-29T07:12:59;18.45;61.87
64961;SHT31;51487;52.266;10.542;2022-07-29T07:15:24;18.57;61.49
64961;SHT31;51487;52.266;10.542;2022-07-29T07:17:50;18.41;61.60
64961;SHT31;51487;52.266;10.542;2022-07-29T07:20:17;18.51;61.65
64961;SHT31;51487;52.266;10.542;2022-07-29T07:22:43;18.65;61.74
64961;SHT31;51487;52.266;10.542;2022-07-29T07:25:09;18.81;60.60
64961;SHT31;51487;52.266;10.542;2022-07-29T07:27:36;18.84;61.36
64961;SHT31;51487;52.266;10.542;2022-07-29T07:30:06;18.79;61.76
64961;SHT31;51487;52.266;10.542;2022-07-29T07:32:33;18.85;60.49
64961;SHT31;51487;52.266;10.542;2022-07-29T07:34:59;19.67;68.63
64961;SHT31;51487;52.266;10.542;2022-07-29T07:37:25;20.44;63.26
64961;SHT31;51487;52.266;10.542;2022-07-29T07:39:52;20.95;58.64
64961;SHT31;51487;52.266;10.542;2022-07-29T07:42:19;21.41;58.11
64961;SHT31;51487;52.266;10.542;2022-07-29T07:44:44;21.85;55.32
64961;SHT31;51487;52.266;10.542;2022-07-29T07:47:14;22.11;54.35
64961;SHT31;51487;52.266;10.542;2022-07-29T07:49:40;22.43;53.63
64961;SHT31;51487;52.266;10.542;2022-07-29T07:52:06;22.65;53.47
64961;SHT31;51487;52.266;10.542;2022-07-29T07:54:32;22.89;52.50
64961;SHT31;51487;52.266;10.542;2022-07-29T07:56:57;23.00;51.71
64961;SHT31;51487;52.266;10.542;2022-07-29T07:59:23;23.13;51.51
64961;SHT31;51487;52.266;10.542;2022-07-29T08:01:49;22.94;51.22
64961;SHT31;51487;52.266;10.542;2022-07-29T08:04:15;22.85;51.49
64961;SHT31;51487;52.266;10.542;2022-07-29T08:06:41;22.92;51.48
64961;SHT31;51487;52.266;10.542;2022-07-29T08:09:07;23.06;51.24
64961;SHT31;51487;52.266;10.542;2022-07-29T08:11:33;23.09;51.37
64961;SHT31;51487;52.266;10.542;2022-07-29T08:13:58;23.10;51.28
64961;SHT31;51487;52.266;10.542;2022-07-29T08:16:27;23.05;51.52
64961;SHT31;51487;52.266;10.542;2022-07-29T08:18:52;23.02;51.44
64961;SHT31;51487;52.266;10.542;2022-07-29T08:21:23;22.81;50.71
64961;SHT31;51487;52.266;10.542;2022-07-29T08:23:49;22.36;51.99
64961;SHT31;51487;52.266;10.542;2022-07-29T08:26:19;22.07;52.85
64961;SHT31;51487;52.266;10.542;2022-07-29T08:28:46;21.92;53.46
64961;SHT31;51487;52.266;10.542;2022-07-29T08:31:15;21.90;52.99
64961;SHT31;51487;52.266;10.542;2022-07-29T08:33:42;21.80;53.86
64961;SHT31;51487;52.266;10.542;2022-07-29T08:36:08;21.75;54.12
64961;SHT31;51487;52.266;10.542;2022-07-29T08:38:33;21.70;54.31
64961;SHT31;51487;52.266;10.542;2022-07-29T08:41:02;21.99;52.79
64961;SHT31;51487;52.266;10.542;2022-07-29T08:43:28;21.93;53.25
64961;SHT31;51487;52.266;10.542;2022-07-29T08:45:54;22.01;53.17
64961;SHT31;51487;52.266;10.542;2022-07-29T08:48:22;22.10;52.99
64961;SHT31;51487;52.266;10.542;2022-07-29T08:50:54;22.18;53.24
64961;SHT31;51487;52.266;10.542;2022-07-29T08:53:21;22.21;53.00
64961;SHT31;51487;52.266;10.542;2022-07-29T08:55:50;22.18;53.50
64961;SHT31;51487;52.266;10.542;2022-07-29T08:58:17;22.06;53.25
64961;SHT31;51487;52.266;10.542;2022-07-29T09:00:53;21.96;52.81
64961;SHT31;51487;52.266;10.542;2022-07-29T09:03:23;21.83;53.90
64961;SHT31;51487;52.266;10.542;2022-07-29T09:05:49;21.87;54.05
64961;SHT31;51487;52.266;10.542;2022-07-29T09:08:16;21.99;54.17
64961;SHT31;51487;52.266;10.542;2022-07-29T09:10:43;22.16;53.16
64961;SHT31;51487;52.266;10.542;2022-07-29T09:13:09;22.14;53.90
64961;SHT31;51487;52.266;10.542;2022-07-29T09:15:35;22.43;52.89
64961;SHT31;51487;52.266;10.542;2022-07-29T09:18:01;22.52;53.06
64961;SHT31;51487;52.266;10.542;2022-07-29T09:20:27;22.67;52.03
64961;SHT31;51487;52.266;10.542;2022-07-29T09:23:13;22.72;51.87
64961;SHT31;51487;52.266;10.542;2022-07-29T09:25:40;22.78;52.19
64961;SHT31;51487;52.266;10.542;2022-07-29T09:28:14;22.75;51.87
64961;SHT31;51487;52.266;10.542;2022-07-29T09:30:58;22.67;51.92
64961;SHT31;51487;52.266;10.542;2022-07-29T09:33:32;22.57;51.69
64961;SHT31;51487;52.266;10.542;2022-07-29T09:36:09;22.62;51.58
64961;SHT31;51487;52.266;10.542;2022-07-29T09:38:35;22.57;52.25
64961;SHT31;51487;52.266;10.542;2022-07-29T09:41:04;22.81;50.93
64961;SHT31;51487;52.266;10.542;2022-07-29T09:43:30;22.89;51.60
64961;SHT31;51487;52.266;10.542;2022-07-29T09:46:12;22.84;51.36
64961;SHT31;51487;52.266;10.542;2022-07-29T09:48:38;23.06;50.32
64961;SHT31;51487;52.266;10.542;2022-07-29T09:51:03;23.06;50.59
64961;SHT31;51487;52.266;10.542;2022-07-29T09:53:36;22.94;51.32
64961;SHT31;51487;52.266;10.542;2022-07-29T09:56:04;22.91;51.58
64961;SHT31;51487;52.266;10.542;2022-07-29T09:58:30;23.00;51.22
64961;SHT31;51487;52.266;10.542;2022-07-29T10:00:58;23.19;50.96
64961;SHT31;51487;52.266;10.542;2022-07-29T10:03:23;23.13;51.34
64961;SHT31;51487;52.266;10.542;2022-07-29T10:06:10;23.27;52.59
64961;SHT31;51487;52.266;10.542;2022-07-29T10:08:38;23.49;50.76
64961;SHT31;51487;52.266;10.542;2022-07-29T10:11:13;23.75;49.83
64961;SHT31;51487;52.266;10.542;2022-07-29T10:13:41;23.70;49.78
64961;SHT31;51487;52.266;10.542;2022-07-29T10:16:07;23.70;49.85
64961;SHT31;51487;52.266;10.542;2022-07-29T10:18:34;23.70;49.98
64961;SHT31;51487;52.266;10.542;2022-07-29T10:21:01;23.74;50.41
64961;SHT31;51487;52.266;10.542;2022-07-29T10:23:30;23.81;49.59
64961;SHT31;51487;52.266;10.542;2022-07-29T10:25:56;23.91;49.28
64961;SHT31;51487;52.266;10.542;2022-07-29T10:28:22;24.08;49.23
64961;SHT31;51487;52.266;10.542;2022-07-29T10:30:50;24.02;49.37
64961;SHT31;51487;52.266;10.542;2022-07-29T10:36:27;24.30;47.74
64961;SHT31;51487;52.266;10.542;2022-07-29T10:42:14;24.29;47.76
64961;SHT31;51487;52.266;10.542;2022-07-29T10:44:43;24.33;48.08
64961;SHT31;51487;52.266;10.542;2022-07-29T10:47:21;24.36;48.67
64961;SHT31;51487;52.266;10.542;2022-07-29T10:52:23;24.63;47.99
64961;SHT31;51487;52.266;10.542;2022-07-29T10:54:53;24.64;47.34
64961;SHT31;51487;52.266;10.542;2022-07-29T10:57:28;24.69;46.90
64961;SHT31;51487;52.266;10.542;2022-07-29T11:05:15;24.88;46.93
64961;SHT31;51487;52.266;10.542;2022-07-29T11:10:39;25.08;46.90
64961;SHT31;51487;52.266;10.542;2022-07-29T11:13:05;25.12;46.70
64961;SHT31;51487;52.266;10.542;2022-07-29T11:15:54;25.22;45.84
64961;SHT31;51487;52.266;10.542;2022-07-29T11:18:20;25.25;45.65
64961;SHT31;51487;52.266;10.542;2022-07-29T11:20:48;25.32;45.13
64961;SHT31;51487;52.266;10.542;2022-07-29T11:23:30;25.35;44.89
64961;SHT31;51487;52.266;10.542;2022-07-29T11:29:01;25.53;44.24
64961;SHT31;51487;52.266;10.542;2022-07-29T11:31:48;25.58;44.06
64961;SHT31;51487;52.266;10.542;2022-07-29T11:34:25;25.62;45.01
64961;SHT31;51487;52.266;10.542;2022-07-29T11:45:13;25.52;45.34
64961;SHT31;51487;52.266;10.542;2022-07-29T11:50:15;25.63;44.30
64961;SHT31;51487;52.266;10.542;2022-07-29T11:52:44;25.55;44.18
64961;SHT31;51487;52.266;10.542;2022-07-29T11:55:18;25.39;44.56
64961;SHT31;51487;52.266;10.542;2022-07-29T11:57:50;25.46;43.97
64961;SHT31;51487;52.266;10.542;2022-07-29T12:02:52;25.76;43.62
64961;SHT31;51487;52.266;10.542;2022-07-29T12:05:18;25.88;43.10
64961;SHT31;51487;52.266;10.542;2022-07-29T12:07:46;25.88;43.80
64961;SHT31;51487;52.266;10.542;2022-07-29T12:10:13;25.92;44.22
64961;SHT31;51487;52.266;10.542;2022-07-29T12:12:38;26.04;43.25
64961;SHT31;51487;52.266;10.542;2022-07-29T12:15:18;26.23;42.17
64961;SHT31;51487;52.266;10.542;2022-07-29T12:17:47;26.20;42.57
64961;SHT31;51487;52.266;10.542;2022-07-29T12:20:23;26.20;43.31
64961;SHT31;51487;52.266;10.542;2022-07-29T12:22:49;26.00;41.24
64961;SHT31;51487;52.266;10.542;2022-07-29T12:25:15;26.13;39.07
64961;SHT31;51487;52.266;10.542;2022-07-29T12:27:42;26.18;37.77
64961;SHT31;51487;52.266;10.542;2022-07-29T12:30:14;26.28;39.09
64961;SHT31;51487;52.266;10.542;2022-07-29T12:32:45;26.37;38.64
64961;SHT31;51487;52.266;10.542;2022-07-29T12:35:14;26.36;40.83
64961;SHT31;51487;52.266;10.542;2022-07-29T12:37:41;26.43;37.64
64961;SHT31;51487;52.266;10.542;2022-07-29T12:40:11;26.61;37.53
64961;SHT31;51487;52.266;10.542;2022-07-29T12:42:38;26.69;36.37
64961;SHT31;51487;52.266;10.542;2022-07-29T12:45:06;26.59;37.61
64961;SHT31;51487;52.266;10.542;2022-07-29T12:47:32;26.55;37.56
64961;SHT31;51487;52.266;10.542;2022-07-29T12:50:13;26.62;37.47
64961;SHT31;51487;52.266;10.542;2022-07-29T12:52:44;26.71;37.91
64961;SHT31;51487;52.266;10.542;2022-07-29T12:55:11;26.89;37.07
64961;SHT31;51487;52.266;10.542;2022-07-29T12:57:48;26.72;38.54
64961;SHT31;51487;52.266;10.542;2022-07-29T13:00:16;26.72;36.87
64961;SHT31;51487;52.266;10.542;2022-07-29T13:02:55;26.91;35.81
64961;SHT31;51487;52.266;10.542;2022-07-29T13:05:21;26.72;37.73
64961;SHT31;51487;52.266;10.542;2022-07-29T13:07:48;26.55;37.59
64961;SHT31;51487;52.266;10.542;2022-07-29T13:10:18;26.55;38.04
64961;SHT31;51487;52.266;10.542;2022-07-29T13:13:10;26.49;38.04
64961;SHT31;51487;52.266;10.542;2022-07-29T13:15:42;26.77;36.11
64961;SHT31;51487;52.266;10.542;2022-07-29T13:18:28;26.68;37.48
64961;SHT31;51487;52.266;10.542;2022-07-29T13:20:55;26.69;37.94
64961;SHT31;51487;52.266;10.542;2022-07-29T13:23:20;26.65;37.54
64961;SHT31;51487;52.266;10.542;2022-07-29T13:25:46;26.68;38.51
64961;SHT31;51487;52.266;10.542;2022-07-29T13:28:12;26.77;37.21
64961;SHT31;51487;52.266;10.542;2022-07-29T13:30:40;26.91;35.93
64961;SHT31;51487;52.266;10.542;2022-07-29T13:33:06;26.72;37.12
64961;SHT31;51487;52.266;10.542;2022-07-29T13:35:31;26.59;37.11
64961;SHT31;51487;52.266;10.542;2022-07-29T13:37:57;26.55;38.84
64961;SHT31;51487;52.266;10.542;2022-07-29T13:40:23;26.37;38.36
64961;SHT31;51487;52.266;10.542;2022-07-29T13:42:49;26.31;37.33
64961;SHT31;51487;52.266;10.542;2022-07-29T13:45:15;26.28;38.52
64961;SHT31;51487;52.266;10.542;2022-07-29T13:47:41;26.17;38.41
64961;SHT31;51487;52.266;10.542;2022-07-29T13:50:08;26.23;37.74
64961;SHT31;51487;52.266;10.542;2022-07-29T13:52:36;26.38;37.80
64961;SHT31;51487;52.266;10.542;2022-07-29T13:55:03;26.34;37.32
64961;SHT31;51487;52.266;10.542;2022-07-29T13:57:29;26.17;37.50
64961;SHT31;51487;52.266;10.542;2022-07-29T13:59:55;26.09;38.60
64961;SHT31;51487;52.266;10.542;2022-07-29T14:02:21;26.04;38.00
64961;SHT31;51487;52.266;10.542;2022-07-29T14:04:47;25.82;38.61
64961;SHT31;51487;52.266;10.542;2022-07-29T14:07:12;25.88;39.37
64961;SHT31;51487;52.266;10.542;2022-07-29T14:09:38;25.86;38.87
64961;SHT31;51487;52.266;10.542;2022-07-29T14:12:04;25.92;38.11
64961;SHT31;51487;52.266;10.542;2022-07-29T14:14:30;25.99;38.26
64961;SHT31;51487;52.266;10.542;2022-07-29T14:16:58;26.07;37.32
64961;SHT31;51487;52.266;10.542;2022-07-29T14:19:24;26.17;37.75
64961;SHT31;51487;52.266;10.542;2022-07-29T14:21:49;26.24;37.56
64961;SHT31;51487;52.266;10.542;2022-07-29T14:24:15;26.20;37.89
64961;SHT31;51487;52.266;10.542;2022-07-29T14:26:41;26.13;38.74
64961;SHT31;51487;52.266;10.542;2022-07-29T14:29:06;26.06;38.04
64961;SHT31;51487;52.266;10.542;2022-07-29T14:31:32;26.06;38.36
64961;SHT31;51487;52.266;10.542;2022-07-29T14:33:58;26.27;37.85
64961;SHT31;51487;52.266;10.542;2022-07-29T14:36:23;26.28;37.86
64961;SHT31;51487;52.266;10.542;2022-07-29T14:38:49;26.41;37.98
64961;SHT31;51487;52.266;10.542;2022-07-29T14:41:15;26.43;38.17
64961;SHT31;51487;52.266;10.542;2022-07-29T14:43:40;26.45;37.69
64961;SHT31;51487;52.266;10.542;2022-07-29T14:46:06;26.52;37.93
64961;SHT31;51487;52.266;10.542;2022-07-29T14:48:32;26.47;37.61
64961;SHT31;51487;52.266;10.542;2022-07-29T14:50:57;26.62;38.02
64961;SHT31;51487;52.266;10.542;2022-07-29T14:53:24;26.58;37.96
64961;SHT31;51487;52.266;10.542;2022-07-29T14:55:49;26.44;38.84
64961;SHT31;51487;52.266;10.542;2022-07-29T14:58:15;26.49;38.52
64961;SHT31;51487;52.266;10.542;2022-07-29T15:00:40;26.44;39.24
64961;SHT31;51487;52.266;10.542;2022-07-29T15:03:06;26.37;38.24
64961;SHT31;51487;52.266;10.542;2022-07-29T15:05:34;26.41;37.74
64961;SHT31;51487;52.266;10.542;2022-07-29T15:08:00;26.36;38.17
64961;SHT31;51487;52.266;10.542;2022-07-29T15:10:26;26.38;38.25
64961;SHT31;51487;52.266;10.542;2022-07-29T15:12:53;26.33;38.26
64961;SHT31;51487;52.266;10.542;2022-07-29T15:15:18;26.26;38.50
64961;SHT31;51487;52.266;10.542;2022-07-29T15:17:44;26.23;37.86
64961;SHT31;51487;52.266;10.542;2022-07-29T15:20:11;26.16;38.49
64961;SHT31;51487;52.266;10.542;2022-07-29T15:22:38;26.14;38.65
64961;SHT31;51487;52.266;10.542;2022-07-29T15:25:05;26.04;38.80
64961;SHT31;51487;52.266;10.542;2022-07-29T15:27:30;26.07;38.52
64961;SHT31;51487;52.266;10.542;2022-07-29T15:29:56;25.97;38.54
64961;SHT31;51487;52.266;10.542;2022-07-29T15:32:22;25.88;38.78
64961;SHT31;51487;52.266;10.542;2022-07-29T15:34:48;25.94;38.60
64961;SHT31;51487;52.266;10.542;2022-07-29T15:37:14;25.86;38.59
64961;SHT31;51487;52.266;10.542;2022-07-29T15:39:40;25.78;39.10
64961;SHT31;51487;52.266;10.542;2022-07-29T15:42:05;25.63;39.43
64961;SHT31;51487;52.266;10.542;2022-07-29T15:44:31;25.78;39.39
64961;SHT31;51487;52.266;10.542;2022-07-29T15:46:57;25.85;39.10
64961;SHT31;51487;52.266;10.542;2022-07-29T15:52:03;25.65;39.49
64961;SHT31;51487;52.266;10.542;2022-07-29T15:54:32;25.73;39.63
64961;SHT31;51487;52.266;10.542;2022-07-29T15:56:58;25.68;39.66
64961;SHT31;51487;52.266;10.542;2022-07-29T15:59:24;25.59;40.33
64961;SHT31;51487;52.266;10.542;2022-07-29T16:01:50;25.57;40.15
64961;SHT31;51487;52.266;10.542;2022-07-29T16:04:16;25.55;40.20
64961;SHT31;51487;52.266;10.542;2022-07-29T16:06:43;25.61;40.33
64961;SHT31;51487;52.266;10.542;2022-07-29T16:09:09;25.63;40.24
64961;SHT31;51487;52.266;10.542;2022-07-29T16:11:35;25.63;40.32